Time;durP1;ratioP1;P1;durP2;ratioP2;P2;SDS_P1;SDS_P2;PMS_P1;PMS_P2;Temp;Humidity;BMP_temperature;BMP_pressure;BME280_temperature;BME280_humidity;BME280_pressure;Samples;Min_cycle;Max_cycle;Signal;HPM_P1;HPM_P2
2021/11/16 00:05:15;;;;;;;;;;;7.90;99.90;;;;;;6148071;23;24054;-68
2021/11/16 00:07:47;;;;;;;;;;;7.90;99.90;;;;;;6147324;23;19963;-67
2021/11/16 00:13:02;;;;;;;;;;;8.00;99.90;;;;;;6145607;23;19932;-67
2021/11/16 00:15:34;;;;;;;;;;;7.90;99.90;;;;;;6146125;23;19905;-66
2021/11/16 00:18:11;;;;;;;;;;;7.90;99.90;;;;;;6145401;23;20039;-65
2021/11/16 00:20:42;;;;;;;;;;;7.90;99.90;;;;;;6147437;23;24043;-67
2021/11/16 00:23:34;;;;;;;;;;;7.80;99.90;;;;;;6146249;23;19909;-67
2021/11/16 00:25:55;;;;;;;;;;;7.80;99.90;;;;;;6145756;23;19908;-67
2021/11/16 00:28:25;;;;;;;;;;;7.80;99.90;;;;;;6146550;23;19908;-67
2021/11/16 00:30:51;;;;;;;;;;;7.80;99.90;;;;;;6145161;23;19943;-68
2021/11/16 00:33:16;;;;;;;;;;;7.80;99.90;;;;;;6142383;23;19912;-67
2021/11/16 00:35:47;;;;;;;;;;;7.80;99.90;;;;;;6144888;23;19905;-67
2021/11/16 00:38:17;;;;;;;;;;;7.70;99.90;;;;;;6146026;23;19951;-66
2021/11/16 00:40:43;;;;;;;;;;;7.70;99.90;;;;;;6147350;23;19994;-66
2021/11/16 00:43:16;;;;;;;;;;;7.70;99.90;;;;;;6145563;23;19913;-68
2021/11/16 00:45:44;;;;;;;;;;;7.60;99.90;;;;;;6146777;23;19936;-67
2021/11/16 00:48:27;;;;;;;;;;;;;;;;;;;;;
2021/11/16 00:50:56;;;;;;;;;;;7.70;99.90;;;;;;6147907;23;19908;-65
2021/11/16 00:53:23;;;;;;;;;;;7.70;99.90;;;;;;6144048;23;19926;-66
2021/11/16 00:58:40;;;;;;;;;;;7.70;99.90;;;;;;6119917;23;19955;-66
2021/11/16 01:01:08;;;;;;;;;;;7.70;99.90;;;;;;6149857;23;19922;-67
2021/11/16 01:03:33;;;;;;;;;;;7.70;99.90;;;;;;6146897;23;20314;-67
2021/11/16 01:06:01;;;;;;;;;;;7.70;99.90;;;;;;6146745;23;20435;-67
2021/11/16 01:08:30;;;;;;;;;;;7.70;99.90;;;;;;6150517;23;19951;-67
2021/11/16 01:11:01;;;;;;;;;;;7.80;99.90;;;;;;6150601;23;19904;-67
2021/11/16 01:13:50;;;;;;;;;;;7.80;99.90;;;;;;6150382;23;19908;-67
2021/11/16 01:16:29;;;;;;;;;;;7.80;99.90;;;;;;6148274;23;19994;-67
2021/11/16 01:18:56;;;;;;;;;;;7.80;99.90;;;;;;6150474;23;19967;-67
2021/11/16 01:21:42;;;;;;;;;;;7.80;99.90;;;;;;6149699;23;19975;-67
2021/11/16 01:24:09;;;;;;;;;;;7.80;99.90;;;;;;6150659;23;19904;-68
2021/11/16 01:26:51;;;;;;;;;;;7.70;99.90;;;;;;6150140;23;19915;-67
2021/11/16 01:29:25;;;;;;;;;;;7.70;99.90;;;;;;6151393;23;19980;-68
2021/11/16 01:31:55;;;;;;;;;;;7.80;99.90;;;;;;6147289;23;19983;-67
2021/11/16 01:34:30;;;;;;;;;;;7.80;99.90;;;;;;6149395;23;19905;-67
2021/11/16 01:37:03;;;;;;;;;;;7.80;99.90;;;;;;6150873;23;19909;-67
2021/11/16 01:39:35;;;;;;;;;;;7.70;99.90;;;;;;6151529;23;19911;-67
2021/11/16 01:42:03;;;;;;;;;;;7.70;99.90;;;;;;6151082;23;19912;-66
2021/11/16 01:44:34;;;;;;;;;;;7.70;99.90;;;;;;6148560;23;19905;-67
2021/11/16 01:47:05;;;;;;;;;;;7.70;99.90;;;;;;6151375;23;19915;-67
2021/11/16 01:49:36;;;;;;;;;;;7.70;99.90;;;;;;6149276;23;19904;-67
2021/11/16 01:52:34;;;;;;;;;;;7.70;99.90;;;;;;6143887;23;19923;-67
2021/11/16 01:55:02;;;;;;;;;;;7.70;99.90;;;;;;6151838;23;19968;-66
2021/11/16 01:57:40;;;;;;;;;;;7.60;99.90;;;;;;6151386;23;19915;-67
2021/11/16 02:00:15;;;;;;;;;;;7.70;99.90;;;;;;6150673;23;20007;-67
2021/11/16 02:02:41;;;;;;;;;;;7.60;99.90;;;;;;6148600;23;25093;-68
2021/11/16 02:05:07;;;;;;;;;;;7.60;99.90;;;;;;6144268;23;20628;-67
2021/11/16 02:07:56;;;;;;;;;;;7.60;99.90;;;;;;6150217;23;20005;-67
2021/11/16 02:10:28;;;;;;;;;;;7.70;99.90;;;;;;6151125;23;25162;-66
2021/11/16 02:13:00;;;;;;;;;;;7.70;99.90;;;;;;6148612;23;20514;-66
2021/11/16 02:15:26;;;;;;;;;;;7.70;99.90;;;;;;6145476;23;20483;-68
2021/11/16 02:18:14;;;;;;;;;;;7.70;99.90;;;;;;6143570;23;20729;-67
2021/11/16 02:20:50;;;;;;;31.10;28.10;;;7.70;99.90;;;;;;6146077;23;20927;-67
2021/11/16 02:23:17;;;;;;;;;;;7.70;99.90;;;;;;6145574;23;21007;-66
2021/11/16 02:25:49;;;;;;;;;;;7.70;99.90;;;;;;6150203;23;24042;-66
2021/11/16 02:28:18;;;;;;;;;;;7.70;99.90;;;;;;6149027;23;20303;-68
2021/11/16 02:30:47;;;;;;;;;;;7.70;99.90;;;;;;6149047;23;19916;-68
2021/11/16 02:33:15;;;;;;;;;;;7.50;99.90;;;;;;6147249;23;24048;-66
2021/11/16 02:35:46;;;;;;;;;;;7.60;99.90;;;;;;6145502;23;20630;-67
2021/11/16 02:38:16;;;;;;;31.30;28.20;;;7.60;99.90;;;;;;6144168;23;20967;-66
2021/11/16 02:41:01;;;;;;;31.90;28.80;;;7.60;99.90;;;;;;6142111;23;20580;-67
2021/11/16 02:43:35;;;;;;;;;;;7.60;99.90;;;;;;6140703;23;20661;-66
2021/11/16 02:46:07;;;;;;;;;;;7.60;99.90;;;;;;6144820;23;20731;-65
2021/11/16 02:48:39;;;;;;;;;;;7.80;99.90;;;;;;6142325;23;20800;-68
2021/11/16 02:51:08;;;;;;;;;;;7.60;99.90;;;;;;6145947;23;20735;-68
2021/11/16 02:53:54;;;;;;;;;;;7.60;99.90;;;;;;6149434;23;20446;-66
2021/11/16 02:56:20;;;;;;;;;;;7.60;99.90;;;;;;6148381;23;20649;-67
2021/11/16 02:58:49;;;;;;;27.75;25.65;;;7.50;99.90;;;;;;6146110;23;25122;-66
2021/11/16 03:01:20;;;;;;;;;;;7.50;99.90;;;;;;6142780;23;21233;-69
2021/11/16 03:03:55;;;;;;;;;;;7.50;99.90;;;;;;6148317;23;20609;-66
2021/11/16 03:06:37;;;;;;;;;;;7.50;99.90;;;;;;6142569;23;20714;-68
2021/11/16 03:09:05;;;;;;;;;;;7.50;99.90;;;;;;6145239;23;20691;-67
2021/11/16 03:11:36;;;;;;;;;;;7.50;99.90;;;;;;6142898;23;24497;-67
2021/11/16 03:14:04;;;;;;;;;;;7.50;99.90;;;;;;6146925;23;20912;-66
2021/11/16 03:16:39;;;;;;;33.65;30.75;;;7.50;99.90;;;;;;6140946;23;21209;-66
2021/11/16 03:19:16;;;;;;;;;;;7.50;99.90;;;;;;6141241;23;20688;-67
2021/11/16 03:21:58;;;;;;;;;;;7.30;99.90;;;;;;6148564;23;20209;-66
2021/11/16 03:24:30;;;;;;;;;;;7.40;99.90;;;;;;6145711;23;25100;-67
2021/11/16 03:26:55;;;;;;;;;;;7.40;99.90;;;;;;6149173;23;20307;-67
2021/11/16 03:29:24;;;;;;;;;;;7.40;99.90;;;;;;6142728;23;20482;-66
2021/11/16 03:32:18;;;;;;;;;;;7.40;99.90;;;;;;6141840;23;25087;-67
2021/11/16 03:34:52;;;;;;;;;;;7.50;99.90;;;;;;6147095;23;24568;-67
2021/11/16 03:37:19;;;;;;;;;;;7.40;99.90;;;;;;6148163;23;20529;-66
2021/11/16 03:39:51;;;;;;;;;;;7.40;99.90;;;;;;6150656;23;20097;-67
2021/11/16 03:42:16;;;;;;;;;;;7.50;99.90;;;;;;6141153;23;20703;-66
2021/11/16 03:44:42;;;;;;;;;;;7.50;99.90;;;;;;6146081;23;21150;-67
2021/11/16 03:47:10;;;;;;;;;;;7.50;99.90;;;;;;6147233;23;20754;-67
2021/11/16 03:49:38;;;;;;;;;;;7.50;99.90;;;;;;6151919;23;25157;-67
2021/11/16 03:52:09;;;;;;;;;;;7.50;99.90;;;;;;6150014;23;19931;-67
2021/11/16 03:54:34;;;;;;;;;;;7.50;99.90;;;;;;6151119;23;20004;-67
2021/11/16 03:57:02;;;;;;;;;;;7.50;99.90;;;;;;6152308;23;20173;-67
2021/11/16 03:59:29;;;;;;;;;;;7.50;99.90;;;;;;6151412;23;19984;-67
2021/11/16 04:02:04;;;;;;;;;;;7.50;99.90;;;;;;6149918;23;25123;-68
2021/11/16 04:04:54;;;;;;;;;;;7.40;99.90;;;;;;6152234;23;19904;-67
2021/11/16 04:07:22;;;;;;;;;;;7.40;99.90;;;;;;6150434;23;20296;-67
2021/11/16 04:09:47;;;;;;;;;;;7.40;99.90;;;;;;6151699;23;19905;-68
2021/11/16 04:12:24;;;;;;;;;;;7.30;99.90;;;;;;6150632;23;19975;-66
2021/11/16 04:14:53;;;;;;;;;;;7.40;99.90;;;;;;6151590;23;19901;-66
2021/11/16 04:17:41;;;;;;;;;;;7.40;99.90;;;;;;6149618;23;24100;-67
2021/11/16 04:20:24;;;;;;;;;;;;;;;;;;;;;
2021/11/16 04:22:56;;;;;;;;;;;7.40;99.90;;;;;;6150055;23;19983;-69
2021/11/16 04:25:32;;;;;;;;;;;7.50;99.90;;;;;;6150186;23;20001;-66
2021/11/16 04:28:18;;;;;;;;;;;7.50;99.90;;;;;;6149366;23;19947;-68
2021/11/16 04:30:48;;;;;;;;;;;7.50;99.90;;;;;;6149528;23;24074;-67
2021/11/16 04:33:18;;;;;;;;;;;7.50;99.90;;;;;;6150433;23;19975;-66
2021/11/16 04:35:53;;;;;;;;;;;7.50;99.90;;;;;;6151485;23;19908;-67
2021/11/16 04:38:25;;;;;;;;;;;7.50;99.90;;;;;;6147866;23;19907;-67
2021/11/16 04:40:57;;;;;;;;;;;7.40;99.90;;;;;;6149143;23;19924;-67
2021/11/16 04:43:26;;;;;;;;;;;7.40;99.90;;;;;;6151275;23;20248;-66
2021/11/16 04:45:54;;;;;;;;;;;7.40;99.90;;;;;;6150870;23;24047;-67
2021/11/16 04:48:57;;;;;;;;;;;7.40;99.90;;;;;;6151688;23;20467;-68
2021/11/16 04:54:27;;;;;;;;;;;7.40;99.90;;;;;;6151962;23;20339;-68
2021/11/16 04:59:48;;;;;;;;;;;7.00;99.90;;;;;;6150617;23;19911;-66
2021/11/16 05:05:26;;;;;;;;;;;7.20;99.90;;;;;;6132076;23;19901;-66
2021/11/16 05:07:56;;;;;;;;;;;7.20;99.90;;;;;;6149154;23;19915;-67
2021/11/16 05:10:26;;;;;;;;;;;7.20;99.90;;;;;;6151443;23;19907;-67
2021/11/16 05:13:00;;;;;;;;;;;7.20;99.90;;;;;;6150121;23;19940;-67
2021/11/16 05:15:36;;;;;;;;;;;7.20;99.90;;;;;;6148735;23;20444;-67
2021/11/16 05:18:05;;;;;;;;;;;7.00;99.90;;;;;;6150150;23;19900;-66
2021/11/16 05:20:36;;;;;;;;;;;7.10;99.90;;;;;;6148904;23;20494;-66
2021/11/16 05:23:12;;;;;;;;;;;7.10;99.90;;;;;;6147811;23;19909;-67
2021/11/16 05:25:40;;;;;;;;;;;7.20;99.90;;;;;;6148399;23;19943;-67
2021/11/16 05:28:11;;;;;;;;;;;7.20;99.90;;;;;;6150367;23;19919;-67
2021/11/16 05:30:42;;;;;;;;;;;7.20;99.90;;;;;;6149359;23;19905;-67
2021/11/16 05:33:15;;;;;;;;;;;7.30;99.90;;;;;;6148608;23;19932;-66
2021/11/16 05:35:43;;;;;;;;;;;7.30;99.90;;;;;;6148371;23;19905;-67
2021/11/16 05:41:08;;;;;;;;;;;7.30;99.90;;;;;;6148753;23;20218;-67
2021/11/16 05:43:42;;;;;;;;;;;7.30;99.90;;;;;;6151523;23;19909;-67
2021/11/16 05:46:11;;;;;;;;;;;7.30;99.90;;;;;;6149807;23;19983;-67
2021/11/16 05:48:39;;;;;;;;;;;7.30;99.90;;;;;;6146194;23;19940;-67
2021/11/16 05:51:11;;;;;;;;;;;7.30;99.90;;;;;;6146131;23;19904;-67
2021/11/16 05:53:41;;;;;;;;;;;7.40;99.90;;;;;;6149797;23;19999;-67
2021/11/16 05:56:15;;;;;;;;;;;7.40;99.90;;;;;;6148982;23;19909;-67
2021/11/16 05:58:52;;;;;;;;;;;7.40;99.90;;;;;;6147102;23;19905;-68
2021/11/16 06:01:41;;;;;;;;;;;7.40;99.90;;;;;;6147978;23;19919;-66
2021/11/16 06:04:35;;;;;;;;;;;;;;;;;;;;;
2021/11/16 06:07:06;;;;;;;;;;;7.30;99.90;;;;;;6146499;23;19912;-68
2021/11/16 06:09:32;;;;;;;;;;;7.30;99.90;;;;;;6146603;23;19987;-67
2021/11/16 06:11:59;;;;;;;;;;;7.30;99.90;;;;;;6144516;23;19932;-67
2021/11/16 06:14:27;;;;;;;;;;;7.30;99.90;;;;;;6149540;23;20076;-67
2021/11/16 06:17:00;;;;;;;;;;;7.30;99.90;;;;;;6148491;23;20331;-66
2021/11/16 06:19:34;;;;;;;;;;;7.40;99.90;;;;;;6148354;23;19987;-67
2021/11/16 06:22:12;;;;;;;;;;;7.40;99.90;;;;;;6148211;23;20267;-67
2021/11/16 06:24:40;;;;;;;;;;;7.40;99.90;;;;;;6147552;23;19901;-67
2021/11/16 06:27:08;;;;;;;;;;;7.40;99.90;;;;;;6147590;23;20255;-68
2021/11/16 06:29:34;;;;;;;;;;;7.40;99.90;;;;;;6147773;23;20272;-67
2021/11/16 06:32:06;;;;;;;;;;;7.40;99.90;;;;;;6147890;23;19971;-68
2021/11/16 06:34:31;;;;;;;;;;;7.40;99.90;;;;;;6152255;23;20211;-67
2021/11/16 06:36:57;;;;;;;;;;;7.40;99.90;;;;;;6148938;23;20083;-67
2021/11/16 06:39:23;;;;;;;;;;;7.40;99.90;;;;;;6147461;23;19943;-67
2021/11/16 06:41:49;;;;;;;;;;;7.40;99.90;;;;;;6149381;23;19905;-67
2021/11/16 06:44:24;;;;;;;;;;;7.40;99.90;;;;;;6150286;23;20254;-67
2021/11/16 06:46:54;;;;;;;;;;;7.40;99.90;;;;;;6151572;23;20236;-67
2021/11/16 06:49:33;;;;;;;;;;;7.40;99.90;;;;;;6152595;23;19901;-66
2021/11/16 06:52:02;;;;;;;;;;;7.30;99.90;;;;;;6149892;23;19994;-67
2021/11/16 06:54:27;;;;;;;;;;;7.40;99.90;;;;;;6153191;23;19900;-67
2021/11/16 06:56:53;;;;;;;;;;;7.40;99.90;;;;;;6151504;23;19908;-68
2021/11/16 06:59:21;;;;;;;;;;;7.40;99.90;;;;;;6151537;23;20395;-66
2021/11/16 07:01:50;;;;;;;;;;;7.40;99.90;;;;;;6150289;23;19935;-67
2021/11/16 07:04:18;;;;;;;;;;;7.40;99.90;;;;;;6152651;23;19904;-67
2021/11/16 07:06:47;;;;;;;;;;;7.40;99.90;;;;;;6151336;23;19908;-67
2021/11/16 07:09:16;;;;;;;;;;;7.50;99.90;;;;;;6152536;23;19927;-67
2021/11/16 07:11:52;;;;;;;;;;;7.50;99.90;;;;;;6150471;23;19904;-67
2021/11/16 07:14:18;;;;;;;;;;;7.40;99.90;;;;;;6152034;23;19952;-67
2021/11/16 07:16:56;;;;;;;;;;;7.50;99.90;;;;;;6153656;23;19908;-66
2021/11/16 07:19:45;;;;;;;;;;;7.50;99.90;;;;;;6153606;23;19909;-67
2021/11/16 07:22:18;;;;;;;;;;;7.40;99.90;;;;;;6153453;23;19984;-67
2021/11/16 07:24:54;;;;;;;;;;;7.50;99.90;;;;;;6152943;23;19905;-67
2021/11/16 07:27:21;;;;;;;;;;;7.50;99.90;;;;;;6153560;23;19916;-67
2021/11/16 07:29:51;;;;;;;;;;;7.50;99.90;;;;;;6154030;23;20346;-66
2021/11/16 07:32:19;;;;;;;;;;;7.50;99.90;;;;;;6152211;23;19954;-67
2021/11/16 07:34:49;;;;;;;;;;;7.40;99.90;;;;;;6154427;23;19999;-67
2021/11/16 07:37:16;;;;;;;;;;;7.40;99.90;;;;;;6152365;23;20476;-68
2021/11/16 07:39:54;;;;;;;;;;;7.50;99.90;;;;;;6154675;23;19960;-68
2021/11/16 07:42:21;;;;;;;;;;;7.50;99.90;;;;;;6149994;23;19962;-68
2021/11/16 07:45:11;;;;;;;;;;;7.50;99.90;;;;;;6153481;23;19944;-67
2021/11/16 07:47:52;;;;;;;;;;;7.50;99.90;;;;;;6153634;23;20591;-67
2021/11/16 07:50:32;;;;;;;;;;;7.50;99.90;;;;;;6152448;23;19901;-66
2021/11/16 07:53:13;;;;;;;;;;;7.50;99.90;;;;;;6152980;23;19912;-67
2021/11/16 07:55:48;;;;;;;;;;;7.40;99.90;;;;;;6153237;23;19905;-66
2021/11/16 07:58:21;;;;;;;;;;;7.40;99.90;;;;;;6152023;23;19905;-67
2021/11/16 08:00:50;;;;;;;;;;;7.50;99.90;;;;;;6152650;23;19900;-68
2021/11/16 08:03:24;;;;;;;;;;;7.50;99.90;;;;;;6150416;23;19963;-66
2021/11/16 08:06:03;;;;;;;;;;;7.50;99.90;;;;;;6150380;23;19900;-67
2021/11/16 08:08:50;;;;;;;;;;;7.50;99.90;;;;;;6152410;23;19993;-66
2021/11/16 08:11:33;;;;;;;;;;;7.50;99.90;;;;;;6141343;23;20279;-67
2021/11/16 08:14:09;;;;;;;;;;;7.50;99.90;;;;;;6168468;23;19901;-67
2021/11/16 08:16:39;;;;;;;;;;;7.50;99.90;;;;;;6152415;23;20026;-68
2021/11/16 08:19:08;;;;;;;;;;;7.40;99.90;;;;;;6153343;23;19924;-67
2021/11/16 08:21:46;;;;;;;;;;;7.40;99.90;;;;;;6152690;23;19919;-67
2021/11/16 08:24:20;;;;;;;;;;;7.40;99.90;;;;;;6151201;23;19911;-67
2021/11/16 08:26:49;;;;;;;;;;;7.40;99.90;;;;;;6153563;23;19904;-67
2021/11/16 08:29:22;;;;;;;;;;;7.40;99.90;;;;;;6154214;23;20204;-67
2021/11/16 08:31:49;;;;;;;;;;;7.50;99.90;;;;;;6150971;23;19908;-68
2021/11/16 08:34:15;;;;;;;;;;;7.50;99.90;;;;;;6153189;23;20319;-66
2021/11/16 08:36:51;;;;;;;;;;;7.40;99.90;;;;;;6153842;23;19936;-66
2021/11/16 08:39:21;;;;;;;;;;;7.30;99.90;;;;;;6152303;23;19901;-67
2021/11/16 08:41:46;;;;;;;;;;;7.30;99.90;;;;;;6150501;23;20272;-67
2021/11/16 08:44:15;;;;;;;;;;;7.40;99.90;;;;;;6153915;23;19908;-67
2021/11/16 08:46:42;;;;;;;;;;;7.40;99.90;;;;;;6153314;23;19934;-67
2021/11/16 08:49:08;;;;;;;;;;;7.40;99.90;;;;;;6153920;23;19901;-68
2021/11/16 08:51:43;;;;;;;;;;;7.40;99.90;;;;;;6151260;23;19916;-67
2021/11/16 08:54:12;;;;;;;;;;;7.40;99.90;;;;;;6152870;23;19904;-67
2021/11/16 08:56:39;;;;;;;;;;;7.40;99.90;;;;;;6153089;23;19969;-67
2021/11/16 08:59:15;;;;;;;;;;;7.40;99.90;;;;;;6153635;23;20221;-68
2021/11/16 09:01:58;;;;;;;;;;;7.50;99.90;;;;;;6151377;23;20253;-68
2021/11/16 09:04:25;;;;;;;;;;;7.50;99.90;;;;;;6153604;23;20419;-67
2021/11/16 09:06:52;;;;;;;;;;;7.50;99.90;;;;;;6151308;23;19908;-67
2021/11/16 09:09:22;;;;;;;;;;;7.40;99.90;;;;;;6153345;23;20247;-67
2021/11/16 09:12:03;;;;;;;;;;;7.50;99.90;;;;;;6152945;23;19976;-68
2021/11/16 09:14:34;;;;;;;;;;;7.50;99.90;;;;;;6153806;23;19968;-68
2021/11/16 09:17:10;;;;;;;;;;;7.50;99.90;;;;;;6152392;23;19900;-66
2021/11/16 09:19:36;;;;;;;;;;;7.40;99.90;;;;;;6152254;23;20239;-66
2021/11/16 09:22:02;;;;;;;;;;;7.50;99.90;;;;;;6152048;23;19908;-67
2021/11/16 09:24:33;;;;;;;;;;;7.50;99.90;;;;;;6152842;23;19900;-67
2021/11/16 09:27:12;;;;;;;;;;;7.50;99.90;;;;;;6150936;23;19905;-67
2021/11/16 09:29:46;;;;;;;;;;;7.60;99.90;;;;;;6152673;23;19940;-67
2021/11/16 09:32:14;;;;;;;;;;;7.50;99.90;;;;;;6151266;23;20027;-67
2021/11/16 09:34:41;;;;;;;;;;;7.50;99.90;;;;;;6152302;23;20335;-67
2021/11/16 09:37:14;;;;;;;;;;;7.50;99.90;;;;;;6152241;23;19904;-67
2021/11/16 09:39:47;;;;;;;;;;;7.50;99.90;;;;;;6153184;23;20271;-67
2021/11/16 09:42:23;;;;;;;;;;;7.40;99.90;;;;;;6150670;23;19904;-68
2021/11/16 09:44:53;;;;;;;;;;;7.50;99.90;;;;;;6150891;23;19901;-67
2021/11/16 09:47:23;;;;;;;;;;;7.40;99.90;;;;;;6152060;23;19919;-67
2021/11/16 09:49:59;;;;;;;;;;;7.40;99.90;;;;;;6152758;23;19951;-67
2021/11/16 09:52:25;;;;;;;;;;;7.40;99.90;;;;;;6151269;23;19908;-68
2021/11/16 09:54:59;;;;;;;;;;;7.30;99.90;;;;;;6153902;23;20442;-67
2021/11/16 09:57:35;;;;;;;;;;;7.30;99.90;;;;;;6152276;23;19904;-67
2021/11/16 10:00:13;;;;;;;;;;;7.40;99.90;;;;;;6152484;23;19901;-66
2021/11/16 10:02:43;;;;;;;;;;;7.40;99.90;;;;;;6150625;23;19928;-67
2021/11/16 10:05:16;;;;;;;;;;;7.40;99.90;;;;;;6151342;23;19901;-67
2021/11/16 10:07:42;;;;;;;;;;;7.40;99.90;;;;;;6152353;23;19908;-67
2021/11/16 10:10:07;;;;;;;;;;;7.40;99.90;;;;;;6151015;23;19959;-67
2021/11/16 10:12:56;;;;;;;;;;;7.40;99.90;;;;;;6150485;23;19905;-67
2021/11/16 10:15:23;;;;;;;;;;;7.50;99.90;;;;;;6148037;23;19904;-69
2021/11/16 10:17:52;;;;;;;;;;;7.50;99.90;;;;;;6151105;23;19915;-66
2021/11/16 10:20:23;;;;;;;;;;;7.40;99.90;;;;;;6151982;23;19912;-67
2021/11/16 10:22:57;;;;;;;;;;;7.40;99.90;;;;;;6151296;23;19983;-67
2021/11/16 10:25:23;;;;;;;;;;;7.50;99.90;;;;;;6152072;23;19912;-67
2021/11/16 10:27:54;;;;;;;;;;;7.40;99.90;;;;;;6150038;23;19936;-68
2021/11/16 10:30:20;;;;;;;;;;;7.40;99.90;;;;;;6152419;23;19905;-67
2021/11/16 10:32:48;;;;;;;;;;;7.20;99.90;;;;;;6150497;23;19971;-68
2021/11/16 10:35:32;;;;;;;;;;;7.20;99.90;;;;;;6152010;23;19962;-67
2021/11/16 10:38:00;;;;;;;;;;;7.20;99.90;;;;;;6152982;23;19905;-66
2021/11/16 10:40:26;;;;;;;;;;;7.20;99.90;;;;;;6151148;23;20399;-66
2021/11/16 10:42:56;;;;;;;;;;;7.20;99.90;;;;;;6148813;23;20239;-66
2021/11/16 10:45:23;;;;;;;;;;;7.20;99.90;;;;;;6151806;23;20099;-67
2021/11/16 10:47:49;;;;;;;;;;;7.20;99.90;;;;;;6152277;23;19908;-68
2021/11/16 10:50:17;;;;;;;;;;;7.20;99.90;;;;;;6153968;23;19939;-67
2021/11/16 10:52:44;;;;;;;;;;;7.20;99.90;;;;;;6152704;23;19911;-69
2021/11/16 10:55:17;;;;;;;;;;;7.20;99.90;;;;;;6151344;23;19954;-67
2021/11/16 10:57:56;;;;;;;;;;;7.30;99.90;;;;;;6154607;23;19910;-67
2021/11/16 11:00:29;;;;;;;;;;;7.30;99.90;;;;;;6153138;23;20282;-66
2021/11/16 11:03:13;;;;;;;;;;;7.20;99.90;;;;;;6152391;23;20421;-67
2021/11/16 11:05:38;;;;;;;;;;;7.20;99.90;;;;;;6152670;23;19932;-66
2021/11/16 11:08:04;;;;;;;;;;;7.30;99.90;;;;;;6152824;23;19931;-68
2021/11/16 11:10:50;;;;;;;;;;;7.20;99.90;;;;;;6150301;23;20216;-68
2021/11/16 11:13:23;;;;;;;;;;;7.30;99.90;;;;;;6153137;23;19904;-68
2021/11/16 11:15:53;;;;;;;;;;;7.30;99.90;;;;;;6150898;23;19904;-67
2021/11/16 11:18:36;;;;;;;;;;;7.30;99.90;;;;;;6152932;23;19929;-68
2021/11/16 11:21:04;;;;;;;;;;;7.30;99.90;;;;;;6152640;23;20177;-68
2021/11/16 11:23:32;;;;;;;;;;;7.40;99.90;;;;;;6151238;23;20012;-68
2021/11/16 11:31:30;;;;;;;;;;;7.40;99.90;;;;;;6151439;23;20358;-68
2021/11/16 11:34:03;;;;;;;;;;;7.40;99.90;;;;;;6151129;23;19901;-67
2021/11/16 11:36:28;;;;;;;;;;;7.40;99.90;;;;;;6151450;23;20291;-66
2021/11/16 11:38:54;;;;;;;;;;;7.30;99.90;;;;;;6150452;23;19900;-67
2021/11/16 11:41:21;;;;;;;;;;;7.40;99.90;;;;;;6152198;23;19912;-67
2021/11/16 11:44:06;;;;;;;;;;;7.40;99.90;;;;;;6149810;23;19968;-68
2021/11/16 11:46:45;;;;;;;;;;;7.40;99.90;;;;;;6153331;23;19905;-66
2021/11/16 11:49:13;;;;;;;;;;;7.40;99.90;;;;;;6151814;23;19904;-66
2021/11/16 11:51:44;;;;;;;;;;;7.60;99.90;;;;;;6152789;23;19909;-68
2021/11/16 11:54:10;;;;;;;;;;;7.50;99.90;;;;;;6152667;23;20304;-68
2021/11/16 11:56:36;;;;;;;;;;;7.50;99.90;;;;;;6151441;23;19916;-67
2021/11/16 11:59:02;;;;;;;;;;;7.50;99.90;;;;;;6150874;23;19901;-66
2021/11/16 12:01:31;;;;;;;;;;;7.30;99.90;;;;;;6150972;23;19915;-67
2021/11/16 12:03:57;;;;;;;;;;;7.40;99.90;;;;;;6151965;23;19992;-67
2021/11/16 12:06:23;;;;;;;;;;;7.40;99.90;;;;;;6152125;23;19999;-66
2021/11/16 12:08:58;;;;;;;;;;;7.40;99.90;;;;;;6151888;23;20290;-66
2021/11/16 12:11:24;;;;;;;;;;;7.50;99.90;;;;;;6148874;23;19959;-67
2021/11/16 12:13:52;;;;;;;;;;;7.50;99.90;;;;;;6151313;23;20169;-68
2021/11/16 12:16:36;;;;;;;;;;;7.40;99.90;;;;;;6150765;23;19915;-67
2021/11/16 12:19:09;;;;;;;;;;;7.40;99.90;;;;;;6151839;23;20188;-66
2021/11/16 12:21:39;;;;;;;;;;;7.40;99.90;;;;;;6150647;23;20062;-67
2021/11/16 12:24:10;;;;;;;;;;;7.40;99.90;;;;;;6151390;23;19900;-66
2021/11/16 12:26:45;;;;;;;;;;;7.30;99.90;;;;;;6151955;23;19940;-66
2021/11/16 12:29:14;;;;;;;;;;;7.40;99.90;;;;;;6148481;23;20204;-67
2021/11/16 12:31:45;;;;;;;;;;;7.40;99.90;;;;;;6146957;23;20154;-68
2021/11/16 12:34:11;;;;;;;;;;;7.40;99.90;;;;;;6151204;23;19915;-67
2021/11/16 12:36:44;;;;;;;;;;;7.30;99.90;;;;;;6151662;23;19924;-67
2021/11/16 12:39:23;;;;;;;;;;;7.40;99.90;;;;;;6151017;23;19966;-67
2021/11/16 12:42:09;;;;;;;;;;;7.40;99.90;;;;;;6148959;23;19916;-67
2021/11/16 12:44:43;;;;;;;;;;;7.40;99.90;;;;;;6149048;23;19904;-67
2021/11/16 12:47:10;;;;;;;;;;;7.40;99.90;;;;;;6151194;23;19908;-66
2021/11/16 12:49:39;;;;;;;;;;;7.30;99.90;;;;;;6152258;23;19946;-67
2021/11/16 12:52:10;;;;;;;;;;;7.40;99.90;;;;;;6150137;23;20010;-66
2021/11/16 12:54:43;;;;;;;;;;;7.40;99.90;;;;;;6152020;23;20351;-67
2021/11/16 12:57:19;;;;;;;;;;;7.40;99.90;;;;;;6149635;23;19907;-67
2021/11/16 12:59:44;;;;;;;;;;;7.40;99.90;;;;;;6150361;23;19940;-67
2021/11/16 13:02:28;;;;;;;;;;;7.50;99.90;;;;;;6150416;23;19940;-67
2021/11/16 13:04:55;;;;;;;;;;;7.40;99.90;;;;;;6150011;23;19946;-67
2021/11/16 13:07:26;;;;;;;;;;;7.50;99.90;;;;;;6147050;23;19927;-68
2021/11/16 13:09:52;;;;;;;;;;;7.40;99.90;;;;;;6148028;23;19976;-67
2021/11/16 13:12:35;;;;;;;;;;;7.50;99.90;;;;;;6149772;23;19940;-68
2021/11/16 13:15:20;;;;;;;;;;;7.50;99.90;;;;;;6151127;23;19943;-67
2021/11/16 13:17:52;;;;;;;;;;;7.40;99.90;;;;;;6149561;23;19957;-66
2021/11/16 13:20:36;;;;;;;;;;;7.40;99.90;;;;;;6150608;23;19935;-67
2021/11/16 13:23:06;;;;;;;;;;;7.40;99.90;;;;;;6150069;23;19940;-67
2021/11/16 13:25:52;;;;;;;;;;;7.40;99.90;;;;;;6149399;23;19928;-66
2021/11/16 13:31:07;;;;;;;;;;;7.50;99.90;;;;;;6148593;23;19947;-66
2021/11/16 13:33:51;;;;;;;;;;;7.50;99.90;;;;;;6147781;23;19919;-68
2021/11/16 13:36:18;;;;;;;;;;;7.50;99.90;;;;;;6148127;23;19904;-66
2021/11/16 13:38:58;;;;;;;;;;;7.50;99.90;;;;;;6147693;23;19901;-67
2021/11/16 13:41:42;;;;;;;;;;;7.50;99.90;;;;;;6147448;23;19916;-66
2021/11/16 13:44:11;;;;;;;;;;;7.50;99.90;;;;;;6149569;23;19905;-67
2021/11/16 13:46:39;;;;;;;;;;;7.50;99.90;;;;;;6149568;23;19931;-66
2021/11/16 13:49:07;;;;;;;;;;;7.50;99.90;;;;;;6150816;23;19916;-67
2021/11/16 13:51:34;;;;;;;;;;;7.50;99.90;;;;;;6149964;23;20031;-68
2021/11/16 13:54:00;;;;;;;;;;;7.50;99.90;;;;;;6150282;23;20006;-67
2021/11/16 13:56:28;;;;;;;;;;;7.50;99.90;;;;;;6150250;23;19908;-67
2021/11/16 13:59:01;;;;;;;;;;;7.50;99.90;;;;;;6149775;23;20212;-67
2021/11/16 14:01:30;;;;;;;;;;;7.50;99.90;;;;;;6146419;23;19979;-66
2021/11/16 14:04:12;;;;;;;;;;;7.10;99.90;;;;;;6151745;23;19978;-67
2021/11/16 14:06:41;;;;;;;;;;;7.50;99.90;;;;;;6148221;23;19975;-67
2021/11/16 14:09:13;;;;;;;;;;;7.50;99.90;;;;;;6150007;23;19905;-67
2021/11/16 14:11:52;;;;;;;;;;;7.40;99.90;;;;;;6149189;23;20295;-67
2021/11/16 14:14:18;;;;;;;;;;;7.40;99.90;;;;;;6148811;23;19935;-67
2021/11/16 14:16:44;;;;;;;;;;;7.50;99.90;;;;;;6150430;23;20252;-67
2021/11/16 14:19:10;;;;;;;;;;;7.40;99.90;;;;;;6149622;23;19982;-67
2021/11/16 14:21:36;;;;;;;;;;;7.40;99.90;;;;;;6149431;23;20235;-67
2021/11/16 14:24:05;;;;;;;;;;;7.40;99.90;;;;;;6148769;23;19904;-68
2021/11/16 14:26:31;;;;;;;;;;;7.40;99.90;;;;;;6150740;23;19912;-66
2021/11/16 14:28:57;;;;;;;;;;;7.40;99.90;;;;;;6148461;23;19935;-67
2021/11/16 14:31:23;;;;;;;;;;;7.40;99.90;;;;;;6147671;23;20337;-67
2021/11/16 14:33:51;;;;;;;;;;;7.40;99.90;;;;;;6148928;23;19956;-67
2021/11/16 14:36:16;;;;;;;;;;;7.40;99.90;;;;;;6148402;23;19912;-67
2021/11/16 14:38:43;;;;;;;;;;;7.50;99.90;;;;;;6147893;23;19900;-68
2021/11/16 14:41:19;;;;;;;;;;;7.80;99.90;;;;;;6148709;23;19911;-67
2021/11/16 14:43:47;;;;;;;;;;;7.60;99.90;;;;;;6149791;23;19972;-66
2021/11/16 14:46:14;;;;;;;;;;;7.60;99.90;;;;;;6148239;23;19904;-66
2021/11/16 14:48:43;;;;;;;;;;;7.70;99.90;;;;;;6150390;23;19904;-67
2021/11/16 14:51:29;;;;;;;;;;;7.70;99.90;;;;;;6143312;23;19900;-65
2021/11/16 14:54:31;;;;;;;;;;;7.70;99.90;;;;;;6149745;23;20364;-68
2021/11/16 14:56:56;;;;;;;;;;;7.70;99.90;;;;;;6143503;23;19901;-67
2021/11/16 14:59:25;;;;;;;;;;;7.60;99.90;;;;;;6150618;23;19947;-68
2021/11/16 15:01:55;;;;;;;;;;;7.60;99.90;;;;;;6147933;23;19928;-68
2021/11/16 15:04:26;;;;;;;;;;;7.50;99.90;;;;;;6148162;23;19915;-68
2021/11/16 15:07:09;;;;;;;;;;;7.50;99.90;;;;;;6149585;23;19901;-66
2021/11/16 15:09:35;;;;;;;;;;;7.50;99.90;;;;;;6148955;23;19904;-66
2021/11/16 15:12:11;;;;;;;;;;;7.50;99.90;;;;;;6147803;23;20239;-66
2021/11/16 15:14:52;;;;;;;;;;;7.50;99.90;;;;;;6149780;23;19908;-67
2021/11/16 15:17:42;;;;;;;;;;;7.40;99.90;;;;;;6147099;23;19900;-67
2021/11/16 15:21:02;;;;;;;;;;;;;;;;;;;;;
2021/11/16 15:23:24;;;;;;;;;;;7.40;99.90;;;;;;6138004;23;19927;-68
2021/11/16 15:26:07;;;;;;;;;;;;;;;;;;;;;
2021/11/16 15:28:43;;;;;;;;;;;7.40;99.90;;;;;;6146408;23;20211;-67
2021/11/16 15:31:10;;;;;;;;;;;7.40;99.90;;;;;;6145456;23;19922;-67
2021/11/16 15:33:35;;;;;;;;;;;7.40;99.90;;;;;;6148616;23;19952;-66
